sensor_id;sensor_type;location;lat;lon;timestamp;P1;durP1;ratioP1;P2;durP2;ratioP2
80199;SDS011;69520;44.900;-0.764;2024-03-08T06:49:39;6.47;;;2.40;;
80199;SDS011;69520;44.900;-0.764;2024-03-08T06:52:05;7.15;;;2.30;;
80199;SDS011;69520;44.900;-0.764;2024-03-08T06:54:34;8.68;;;2.28;;
80199;SDS011;69520;44.900;-0.764;2024-03-08T06:57:01;7.90;;;2.30;;
80199;SDS011;69520;44.900;-0.764;2024-03-08T06:59:28;9.32;;;2.67;;
80199;SDS011;69520;44.900;-0.764;2024-03-08T07:01:54;7.72;;;2.03;;
80199;SDS011;69520;44.900;-0.764;2024-03-08T07:04:20;9.20;;;2.50;;
80199;SDS011;69520;44.900;-0.764;2024-03-08T07:06:49;8.25;;;2.58;;
80199;SDS011;69520;44.900;-0.764;2024-03-08T07:09:15;7.97;;;2.60;;
80199;SDS011;69520;44.900;-0.764;2024-03-08T07:11:44;10.82;;;2.72;;
80199;SDS011;69520;44.900;-0.764;2024-03-08T07:14:11;9.27;;;2.47;;
80199;SDS011;69520;44.900;-0.764;2024-03-08T07:16:40;8.65;;;2.20;;
80199;SDS011;69520;44.900;-0.764;2024-03-08T07:19:06;8.55;;;2.08;;
80199;SDS011;69520;44.900;-0.764;2024-03-08T07:21:32;7.77;;;2.27;;
80199;SDS011;69520;44.900;-0.764;2024-03-08T07:23:58;6.35;;;2.03;;
80199;SDS011;69520;44.900;-0.764;2024-03-08T07:26:24;10.18;;;2.30;;
80199;SDS011;69520;44.900;-0.764;2024-03-08T07:28:50;8.88;;;2.45;;
80199;SDS011;69520;44.900;-0.764;2024-03-08T07:31:17;7.22;;;2.50;;
80199;SDS011;69520;44.900;-0.764;2024-03-08T07:34:03;11.53;;;3.80;;
80199;SDS011;69520;44.900;-0.764;2024-03-08T07:36:32;11.00;;;3.50;;
80199;SDS011;69520;44.900;-0.764;2024-03-08T07:38:58;8.65;;;2.80;;
80199;SDS011;69520;44.900;-0.764;2024-03-08T07:41:24;8.60;;;2.50;;
80199;SDS011;69520;44.900;-0.764;2024-03-08T07:43:50;9.57;;;2.40;;
80199;SDS011;69520;44.900;-0.764;2024-03-08T07:46:17;7.33;;;1.80;;
80199;SDS011;69520;44.900;-0.764;2024-03-08T07:48:43;8.50;;;2.40;;
80199;SDS011;69520;44.900;-0.764;2024-03-08T07:51:10;11.20;;;5.45;;
80199;SDS011;69520;44.900;-0.764;2024-03-08T07:53:37;9.30;;;5.43;;
80199;SDS011;69520;44.900;-0.764;2024-03-08T07:56:03;12.10;;;5.95;;
80199;SDS011;69520;44.900;-0.764;2024-03-08T07:58:34;9.73;;;4.77;;
80199;SDS011;69520;44.900;-0.764;2024-03-08T08:01:01;11.27;;;4.30;;
80199;SDS011;69520;44.900;-0.764;2024-03-08T08:03:28;9.27;;;3.50;;
80199;SDS011;69520;44.900;-0.764;2024-03-08T08:05:54;9.30;;;3.53;;
80199;SDS011;69520;44.900;-0.764;2024-03-08T08:08:20;8.43;;;3.33;;
80199;SDS011;69520;44.900;-0.764;2024-03-08T08:10:46;9.27;;;3.00;;
80199;SDS011;69520;44.900;-0.764;2024-03-08T08:13:12;10.43;;;3.30;;
80199;SDS011;69520;44.900;-0.764;2024-03-08T08:15:38;7.65;;;3.35;;
80199;SDS011;69520;44.900;-0.764;2024-03-08T08:18:04;9.05;;;3.40;;
80199;SDS011;69520;44.900;-0.764;2024-03-08T08:20:30;9.55;;;2.80;;
80199;SDS011;69520;44.900;-0.764;2024-03-08T08:22:57;8.70;;;3.00;;
80199;SDS011;69520;44.900;-0.764;2024-03-08T08:25:24;10.98;;;3.58;;
80199;SDS011;69520;44.900;-0.764;2024-03-08T08:27:50;10.38;;;4.22;;
80199;SDS011;69520;44.900;-0.764;2024-03-08T08:30:16;15.90;;;5.10;;
80199;SDS011;69520;44.900;-0.764;2024-03-08T11:25:48;6.28;;;1.92;;
80199;SDS011;69520;44.900;-0.764;2024-03-08T11:28:21;6.90;;;2.10;;
80199;SDS011;69520;44.900;-0.764;2024-03-08T11:33:36;6.18;;;1.70;;
80199;SDS011;69520;44.900;-0.764;2024-03-08T11:38:39;5.60;;;1.80;;
80199;SDS011;69520;44.900;-0.764;2024-03-08T11:41:06;5.22;;;1.52;;
80199;SDS011;69520;44.900;-0.764;2024-03-08T11:43:33;6.10;;;1.70;;
80199;SDS011;69520;44.900;-0.764;2024-03-08T11:46:13;9.05;;;2.10;;
80199;SDS011;69520;44.900;-0.764;2024-03-08T11:48:40;6.60;;;1.60;;
80199;SDS011;69520;44.900;-0.764;2024-03-08T11:51:12;6.65;;;2.08;;
80199;SDS011;69520;44.900;-0.764;2024-03-08T11:53:39;6.38;;;2.28;;
80199;SDS011;69520;44.900;-0.764;2024-03-08T11:56:13;6.22;;;1.58;;
80199;SDS011;69520;44.900;-0.764;2024-03-08T11:58:39;5.43;;;1.77;;
80199;SDS011;69520;44.900;-0.764;2024-03-08T12:01:06;5.37;;;1.63;;
80199;SDS011;69520;44.900;-0.764;2024-03-08T12:03:32;7.97;;;1.98;;
80199;SDS011;69520;44.900;-0.764;2024-03-08T12:06:03;6.63;;;1.90;;
80199;SDS011;69520;44.900;-0.764;2024-03-08T12:08:32;7.47;;;2.17;;
80199;SDS011;69520;44.900;-0.764;2024-03-08T12:10:58;6.68;;;2.13;;
80199;SDS011;69520;44.900;-0.764;2024-03-08T12:13:32;7.03;;;1.87;;
80199;SDS011;69520;44.900;-0.764;2024-03-08T12:15:59;6.97;;;1.60;;
80199;SDS011;69520;44.900;-0.764;2024-03-08T12:18:25;6.13;;;1.58;;
80199;SDS011;69520;44.900;-0.764;2024-03-08T12:23:47;5.53;;;1.40;;
80199;SDS011;69520;44.900;-0.764;2024-03-08T12:26:33;7.38;;;1.40;;
80199;SDS011;69520;44.900;-0.764;2024-03-08T12:31:58;6.30;;;1.70;;
80199;SDS011;69520;44.900;-0.764;2024-03-08T12:34:25;6.90;;;1.70;;
80199;SDS011;69520;44.900;-0.764;2024-03-08T12:36:57;6.55;;;2.00;;
80199;SDS011;69520;44.900;-0.764;2024-03-08T12:39:23;8.65;;;2.28;;
80199;SDS011;69520;44.900;-0.764;2024-03-08T12:41:53;6.20;;;2.13;;
80199;SDS011;69520;44.900;-0.764;2024-03-08T12:44:19;5.37;;;1.80;;
80199;SDS011;69520;44.900;-0.764;2024-03-08T12:46:46;6.43;;;1.40;;
80199;SDS011;69520;44.900;-0.764;2024-03-08T12:49:13;6.95;;;1.50;;
80199;SDS011;69520;44.900;-0.764;2024-03-08T12:51:42;6.32;;;1.40;;
80199;SDS011;69520;44.900;-0.764;2024-03-08T12:54:08;5.15;;;1.60;;
80199;SDS011;69520;44.900;-0.764;2024-03-08T12:56:35;8.20;;;1.50;;
80199;SDS011;69520;44.900;-0.764;2024-03-08T12:59:03;5.65;;;1.30;;
80199;SDS011;69520;44.900;-0.764;2024-03-08T13:01:29;6.22;;;1.55;;
80199;SDS011;69520;44.900;-0.764;2024-03-08T13:03:57;7.00;;;1.52;;
80199;SDS011;69520;44.900;-0.764;2024-03-08T13:06:23;5.65;;;1.30;;
80199;SDS011;69520;44.900;-0.764;2024-03-08T13:08:50;6.70;;;1.57;;
80199;SDS011;69520;44.900;-0.764;2024-03-08T13:11:17;6.50;;;1.33;;
80199;SDS011;69520;44.900;-0.764;2024-03-08T13:13:44;5.10;;;1.33;;
80199;SDS011;69520;44.900;-0.764;2024-03-08T13:16:10;6.38;;;1.40;;
80199;SDS011;69520;44.900;-0.764;2024-03-08T13:18:40;5.38;;;1.50;;
80199;SDS011;69520;44.900;-0.764;2024-03-08T13:21:07;5.30;;;1.53;;
80199;SDS011;69520;44.900;-0.764;2024-03-08T13:23:34;7.65;;;1.50;;
80199;SDS011;69520;44.900;-0.764;2024-03-08T13:26:11;6.97;;;1.70;;
80199;SDS011;69520;44.900;-0.764;2024-03-08T13:28:40;6.30;;;1.55;;
80199;SDS011;69520;44.900;-0.764;2024-03-08T13:31:06;6.88;;;1.55;;
80199;SDS011;69520;44.900;-0.764;2024-03-08T13:33:35;5.70;;;1.30;;
80199;SDS011;69520;44.900;-0.764;2024-03-08T13:36:02;5.38;;;1.15;;
80199;SDS011;69520;44.900;-0.764;2024-03-08T13:38:29;6.50;;;1.30;;
80199;SDS011;69520;44.900;-0.764;2024-03-08T13:40:57;6.10;;;1.35;;
80199;SDS011;69520;44.900;-0.764;2024-03-08T13:43:23;7.25;;;1.67;;
80199;SDS011;69520;44.900;-0.764;2024-03-08T13:45:49;6.43;;;1.37;;
80199;SDS011;69520;44.900;-0.764;2024-03-08T13:48:15;6.35;;;1.75;;
80199;SDS011;69520;44.900;-0.764;2024-03-08T13:50:41;5.55;;;1.33;;
80199;SDS011;69520;44.900;-0.764;2024-03-08T13:53:07;5.00;;;1.25;;
80199;SDS011;69520;44.900;-0.764;2024-03-08T13:55:35;7.78;;;2.00;;
80199;SDS011;69520;44.900;-0.764;2024-03-08T13:58:01;5.63;;;1.43;;
80199;SDS011;69520;44.900;-0.764;2024-03-08T14:00:27;7.20;;;1.75;;
80199;SDS011;69520;44.900;-0.764;2024-03-08T14:02:58;5.78;;;1.10;;
80199;SDS011;69520;44.900;-0.764;2024-03-08T14:05:24;6.00;;;1.30;;
80199;SDS011;69520;44.900;-0.764;2024-03-08T14:07:50;5.05;;;1.15;;
80199;SDS011;69520;44.900;-0.764;2024-03-08T14:10:19;6.00;;;1.17;;
80199;SDS011;69520;44.900;-0.764;2024-03-08T14:12:47;4.88;;;1.20;;
80199;SDS011;69520;44.900;-0.764;2024-03-08T14:15:15;4.30;;;1.10;;
80199;SDS011;69520;44.900;-0.764;2024-03-08T14:17:41;6.10;;;1.20;;
80199;SDS011;69520;44.900;-0.764;2024-03-08T14:20:08;5.43;;;1.15;;
80199;SDS011;69520;44.900;-0.764;2024-03-08T14:22:34;4.50;;;1.27;;
80199;SDS011;69520;44.900;-0.764;2024-03-08T14:25:00;5.53;;;1.48;;
80199;SDS011;69520;44.900;-0.764;2024-03-08T14:27:27;5.93;;;1.45;;
80199;SDS011;69520;44.900;-0.764;2024-03-08T14:29:54;5.72;;;1.30;;
80199;SDS011;69520;44.900;-0.764;2024-03-08T14:32:20;5.88;;;1.35;;
80199;SDS011;69520;44.900;-0.764;2024-03-08T14:34:48;6.53;;;1.30;;
80199;SDS011;69520;44.900;-0.764;2024-03-08T14:37:14;5.40;;;1.40;;
80199;SDS011;69520;44.900;-0.764;2024-03-08T14:39:40;5.50;;;1.60;;
80199;SDS011;69520;44.900;-0.764;2024-03-08T14:42:06;6.93;;;1.50;;
80199;SDS011;69520;44.900;-0.764;2024-03-08T14:44:33;6.30;;;1.70;;
80199;SDS011;69520;44.900;-0.764;2024-03-08T14:47:00;5.60;;;1.50;;
80199;SDS011;69520;44.900;-0.764;2024-03-08T14:49:26;5.15;;;1.30;;
80199;SDS011;69520;44.900;-0.764;2024-03-08T14:51:54;6.97;;;1.27;;
80199;SDS011;69520;44.900;-0.764;2024-03-08T14:54:20;6.88;;;1.40;;
80199;SDS011;69520;44.900;-0.764;2024-03-08T14:56:48;6.20;;;1.30;;
80199;SDS011;69520;44.900;-0.764;2024-03-08T14:59:17;4.73;;;1.00;;
80199;SDS011;69520;44.900;-0.764;2024-03-08T15:01:44;5.72;;;1.50;;
80199;SDS011;69520;44.900;-0.764;2024-03-08T15:04:10;5.60;;;1.27;;
80199;SDS011;69520;44.900;-0.764;2024-03-08T15:06:37;4.95;;;1.30;;
80199;SDS011;69520;44.900;-0.764;2024-03-08T15:09:04;5.93;;;1.42;;
80199;SDS011;69520;44.900;-0.764;2024-03-08T15:11:56;5.47;;;1.17;;
80199;SDS011;69520;44.900;-0.764;2024-03-08T15:14:22;5.43;;;0.90;;
80199;SDS011;69520;44.900;-0.764;2024-03-08T15:16:50;5.32;;;1.10;;
80199;SDS011;69520;44.900;-0.764;2024-03-08T15:19:16;4.43;;;1.15;;
80199;SDS011;69520;44.900;-0.764;2024-03-08T15:21:46;4.95;;;1.00;;
80199;SDS011;69520;44.900;-0.764;2024-03-08T15:24:13;4.10;;;0.93;;
80199;SDS011;69520;44.900;-0.764;2024-03-08T15:26:43;6.35;;;1.10;;
80199;SDS011;69520;44.900;-0.764;2024-03-08T15:29:09;6.15;;;1.42;;
80199;SDS011;69520;44.900;-0.764;2024-03-08T15:31:38;3.30;;;0.70;;
80199;SDS011;69520;44.900;-0.764;2024-03-08T15:34:07;4.25;;;0.68;;
80199;SDS011;69520;44.900;-0.764;2024-03-08T15:36:36;3.60;;;0.73;;
80199;SDS011;69520;44.900;-0.764;2024-03-08T15:39:02;3.75;;;0.70;;
80199;SDS011;69520;44.900;-0.764;2024-03-08T15:41:29;5.00;;;1.10;;
80199;SDS011;69520;44.900;-0.764;2024-03-08T15:43:55;4.75;;;1.35;;
80199;SDS011;69520;44.900;-0.764;2024-03-08T15:46:21;5.32;;;1.33;;
80199;SDS011;69520;44.900;-0.764;2024-03-08T15:48:48;4.90;;;1.50;;
80199;SDS011;69520;44.900;-0.764;2024-03-08T15:51:16;5.18;;;1.17;;
80199;SDS011;69520;44.900;-0.764;2024-03-08T15:53:44;5.50;;;1.17;;
80199;SDS011;69520;44.900;-0.764;2024-03-08T15:56:17;4.80;;;0.98;;
80199;SDS011;69520;44.900;-0.764;2024-03-08T15:58:44;4.43;;;0.95;;
80199;SDS011;69520;44.900;-0.764;2024-03-08T16:01:10;3.47;;;0.70;;
80199;SDS011;69520;44.900;-0.764;2024-03-08T16:03:40;4.45;;;0.90;;
80199;SDS011;69520;44.900;-0.764;2024-03-08T16:06:07;4.15;;;0.60;;
80199;SDS011;69520;44.900;-0.764;2024-03-08T16:08:33;4.00;;;0.90;;
80199;SDS011;69520;44.900;-0.764;2024-03-08T16:11:01;5.07;;;1.00;;
80199;SDS011;69520;44.900;-0.764;2024-03-08T16:13:32;4.53;;;1.03;;
80199;SDS011;69520;44.900;-0.764;2024-03-08T16:15:58;4.53;;;1.00;;
80199;SDS011;69520;44.900;-0.764;2024-03-08T16:18:24;5.35;;;1.20;;
80199;SDS011;69520;44.900;-0.764;2024-03-08T16:20:50;5.57;;;1.10;;
80199;SDS011;69520;44.900;-0.764;2024-03-08T16:23:17;5.90;;;1.20;;
80199;SDS011;69520;44.900;-0.764;2024-03-08T16:25:43;6.03;;;1.43;;
80199;SDS011;69520;44.900;-0.764;2024-03-08T16:28:09;5.43;;;1.50;;
80199;SDS011;69520;44.900;-0.764;2024-03-08T16:30:42;5.40;;;1.40;;
80199;SDS011;69520;44.900;-0.764;2024-03-08T16:33:13;6.88;;;2.05;;
80199;SDS011;69520;44.900;-0.764;2024-03-08T16:35:40;5.97;;;2.22;;
80199;SDS011;69520;44.900;-0.764;2024-03-08T16:38:09;6.23;;;1.90;;
80199;SDS011;69520;44.900;-0.764;2024-03-08T16:40:39;10.48;;;2.28;;
80199;SDS011;69520;44.900;-0.764;2024-03-08T16:43:05;6.53;;;1.90;;
80199;SDS011;69520;44.900;-0.764;2024-03-08T16:45:36;6.78;;;2.05;;
80199;SDS011;69520;44.900;-0.764;2024-03-08T16:48:02;7.20;;;1.80;;
80199;SDS011;69520;44.900;-0.764;2024-03-08T16:50:28;5.80;;;1.80;;
80199;SDS011;69520;44.900;-0.764;2024-03-08T16:52:56;5.72;;;1.73;;
80199;SDS011;69520;44.900;-0.764;2024-03-08T16:55:22;7.40;;;1.33;;
80199;SDS011;69520;44.900;-0.764;2024-03-08T16:57:48;8.07;;;2.47;;
80199;SDS011;69520;44.900;-0.764;2024-03-08T17:02:46;12.03;;;4.30;;
80199;SDS011;69520;44.900;-0.764;2024-03-08T17:05:14;11.65;;;4.93;;
80199;SDS011;69520;44.900;-0.764;2024-03-08T17:07:42;8.68;;;3.38;;
80199;SDS011;69520;44.900;-0.764;2024-03-08T17:10:09;6.82;;;1.92;;
80199;SDS011;69520;44.900;-0.764;2024-03-08T17:12:40;10.38;;;4.03;;
80199;SDS011;69520;44.900;-0.764;2024-03-08T17:15:08;10.07;;;2.87;;
80199;SDS011;69520;44.900;-0.764;2024-03-08T17:17:36;6.25;;;2.20;;
80199;SDS011;69520;44.900;-0.764;2024-03-08T17:20:02;6.35;;;1.75;;
80199;SDS011;69520;44.900;-0.764;2024-03-08T17:22:32;6.43;;;2.30;;
80199;SDS011;69520;44.900;-0.764;2024-03-08T17:24:58;8.20;;;2.60;;
80199;SDS011;69520;44.900;-0.764;2024-03-08T17:27:24;7.00;;;2.20;;
80199;SDS011;69520;44.900;-0.764;2024-03-08T17:29:50;9.10;;;3.08;;
80199;SDS011;69520;44.900;-0.764;2024-03-08T17:32:18;8.00;;;2.90;;
80199;SDS011;69520;44.900;-0.764;2024-03-08T17:34:44;10.18;;;3.42;;
80199;SDS011;69520;44.900;-0.764;2024-03-08T17:37:10;13.25;;;6.28;;
80199;SDS011;69520;44.900;-0.764;2024-03-08T17:39:39;12.37;;;5.80;;
80199;SDS011;69520;44.900;-0.764;2024-03-08T17:42:05;13.65;;;6.43;;
80199;SDS011;69520;44.900;-0.764;2024-03-08T17:44:31;13.25;;;6.15;;
80199;SDS011;69520;44.900;-0.764;2024-03-08T17:46:57;10.80;;;4.90;;
80199;SDS011;69520;44.900;-0.764;2024-03-08T17:49:23;10.70;;;5.25;;
80199;SDS011;69520;44.900;-0.764;2024-03-08T17:51:49;8.57;;;3.50;;
80199;SDS011;69520;44.900;-0.764;2024-03-08T17:54:16;6.07;;;1.90;;
80199;SDS011;69520;44.900;-0.764;2024-03-08T17:56:43;5.07;;;1.80;;
80199;SDS011;69520;44.900;-0.764;2024-03-08T17:59:10;7.72;;;2.83;;
80199;SDS011;69520;44.900;-0.764;2024-03-08T18:01:37;11.00;;;3.67;;
80199;SDS011;69520;44.900;-0.764;2024-03-08T18:04:04;7.80;;;3.03;;
80199;SDS011;69520;44.900;-0.764;2024-03-08T18:06:34;8.02;;;3.22;;
80199;SDS011;69520;44.900;-0.764;2024-03-08T18:09:03;8.85;;;3.40;;
80199;SDS011;69520;44.900;-0.764;2024-03-08T18:11:39;7.72;;;3.30;;
80199;SDS011;69520;44.900;-0.764;2024-03-08T18:14:05;11.00;;;4.10;;
80199;SDS011;69520;44.900;-0.764;2024-03-08T18:16:38;9.90;;;4.27;;
80199;SDS011;69520;44.900;-0.764;2024-03-08T18:19:07;10.48;;;4.47;;
80199;SDS011;69520;44.900;-0.764;2024-03-08T18:21:35;11.02;;;4.80;;
80199;SDS011;69520;44.900;-0.764;2024-03-08T18:24:04;13.02;;;6.05;;
80199;SDS011;69520;44.900;-0.764;2024-03-08T18:26:31;13.40;;;6.13;;
80199;SDS011;69520;44.900;-0.764;2024-03-08T18:29:00;12.43;;;6.17;;
80199;SDS011;69520;44.900;-0.764;2024-03-08T18:31:28;15.07;;;7.00;;
80199;SDS011;69520;44.900;-0.764;2024-03-08T18:33:55;11.93;;;6.32;;
80199;SDS011;69520;44.900;-0.764;2024-03-08T18:36:25;12.32;;;6.32;;
80199;SDS011;69520;44.900;-0.764;2024-03-08T18:38:55;13.15;;;7.00;;
80199;SDS011;69520;44.900;-0.764;2024-03-08T18:41:21;12.80;;;7.40;;
80199;SDS011;69520;44.900;-0.764;2024-03-08T18:43:47;14.13;;;7.65;;
80199;SDS011;69520;44.900;-0.764;2024-03-08T18:46:14;14.05;;;7.72;;
80199;SDS011;69520;44.900;-0.764;2024-03-08T18:48:40;13.65;;;7.43;;
80199;SDS011;69520;44.900;-0.764;2024-03-08T18:51:06;13.57;;;7.07;;
80199;SDS011;69520;44.900;-0.764;2024-03-08T18:53:33;13.70;;;5.87;;
80199;SDS011;69520;44.900;-0.764;2024-03-08T18:56:00;11.50;;;5.70;;
80199;SDS011;69520;44.900;-0.764;2024-03-08T18:58:26;12.95;;;5.97;;
80199;SDS011;69520;44.900;-0.764;2024-03-08T19:00:56;10.60;;;5.38;;
80199;SDS011;69520;44.900;-0.764;2024-03-08T19:03:22;10.77;;;5.20;;
80199;SDS011;69520;44.900;-0.764;2024-03-08T19:05:48;10.00;;;4.73;;
80199;SDS011;69520;44.900;-0.764;2024-03-08T19:08:14;10.30;;;4.45;;
80199;SDS011;69520;44.900;-0.764;2024-03-08T19:10:42;11.18;;;5.00;;
80199;SDS011;69520;44.900;-0.764;2024-03-08T19:13:08;10.40;;;4.38;;
80199;SDS011;69520;44.900;-0.764;2024-03-08T19:15:37;8.60;;;3.80;;
80199;SDS011;69520;44.900;-0.764;2024-03-08T19:18:03;8.20;;;3.77;;
80199;SDS011;69520;44.900;-0.764;2024-03-08T19:20:41;7.60;;;3.65;;
80199;SDS011;69520;44.900;-0.764;2024-03-08T19:23:07;8.75;;;4.05;;
80199;SDS011;69520;44.900;-0.764;2024-03-08T19:25:34;8.52;;;3.63;;
80199;SDS011;69520;44.900;-0.764;2024-03-08T19:28:04;10.18;;;4.30;;
80199;SDS011;69520;44.900;-0.764;2024-03-08T19:30:31;8.73;;;3.70;;
80199;SDS011;69520;44.900;-0.764;2024-03-08T19:32:58;8.82;;;3.70;;
80199;SDS011;69520;44.900;-0.764;2024-03-08T19:35:25;8.80;;;4.05;;
80199;SDS011;69520;44.900;-0.764;2024-03-08T19:37:53;9.05;;;3.40;;
80199;SDS011;69520;44.900;-0.764;2024-03-08T19:40:20;9.77;;;3.03;;
80199;SDS011;69520;44.900;-0.764;2024-03-08T19:42:50;7.63;;;2.67;;
80199;SDS011;69520;44.900;-0.764;2024-03-08T19:45:17;7.93;;;2.90;;
80199;SDS011;69520;44.900;-0.764;2024-03-08T19:47:44;11.75;;;4.60;;
80199;SDS011;69520;44.900;-0.764;2024-03-08T19:50:14;11.15;;;4.93;;
80199;SDS011;69520;44.900;-0.764;2024-03-08T19:52:41;12.00;;;4.78;;
80199;SDS011;69520;44.900;-0.764;2024-03-08T19:55:07;11.27;;;5.10;;
80199;SDS011;69520;44.900;-0.764;2024-03-08T19:57:35;9.73;;;3.35;;
80199;SDS011;69520;44.900;-0.764;2024-03-08T20:00:01;7.85;;;3.40;;
80199;SDS011;69520;44.900;-0.764;2024-03-08T20:02:29;9.65;;;3.67;;
80199;SDS011;69520;44.900;-0.764;2024-03-08T20:04:55;9.27;;;3.38;;
80199;SDS011;69520;44.900;-0.764;2024-03-08T20:07:22;10.27;;;3.53;;
80199;SDS011;69520;44.900;-0.764;2024-03-08T20:09:48;8.18;;;3.53;;
80199;SDS011;69520;44.900;-0.764;2024-03-08T20:12:14;7.78;;;1.83;;
80199;SDS011;69520;44.900;-0.764;2024-03-08T20:14:41;8.20;;;2.60;;
80199;SDS011;69520;44.900;-0.764;2024-03-08T20:17:07;8.57;;;2.33;;
80199;SDS011;69520;44.900;-0.764;2024-03-08T20:19:34;6.50;;;1.90;;
80199;SDS011;69520;44.900;-0.764;2024-03-08T20:22:01;6.15;;;2.03;;
80199;SDS011;69520;44.900;-0.764;2024-03-08T20:24:27;6.30;;;2.10;;
80199;SDS011;69520;44.900;-0.764;2024-03-08T20:26:53;7.03;;;2.30;;
80199;SDS011;69520;44.900;-0.764;2024-03-08T20:29:20;6.90;;;2.67;;
80199;SDS011;69520;44.900;-0.764;2024-03-08T20:31:46;6.97;;;2.70;;
80199;SDS011;69520;44.900;-0.764;2024-03-08T20:34:12;6.65;;;1.88;;
80199;SDS011;69520;44.900;-0.764;2024-03-08T20:36:39;6.45;;;2.25;;
80199;SDS011;69520;44.900;-0.764;2024-03-08T20:39:07;7.43;;;2.58;;
80199;SDS011;69520;44.900;-0.764;2024-03-08T20:41:35;7.00;;;2.08;;
80199;SDS011;69520;44.900;-0.764;2024-03-08T20:44:15;7.40;;;2.27;;
80199;SDS011;69520;44.900;-0.764;2024-03-08T20:46:44;6.97;;;2.50;;
80199;SDS011;69520;44.900;-0.764;2024-03-08T20:49:11;7.00;;;2.30;;
80199;SDS011;69520;44.900;-0.764;2024-03-08T20:51:39;6.15;;;2.03;;
80199;SDS011;69520;44.900;-0.764;2024-03-08T20:54:07;7.38;;;2.33;;
80199;SDS011;69520;44.900;-0.764;2024-03-08T20:56:33;6.23;;;2.20;;
80199;SDS011;69520;44.900;-0.764;2024-03-08T20:59:00;7.72;;;2.40;;
80199;SDS011;69520;44.900;-0.764;2024-03-08T21:01:26;6.57;;;1.90;;
80199;SDS011;69520;44.900;-0.764;2024-03-08T21:03:59;8.60;;;2.10;;
80199;SDS011;69520;44.900;-0.764;2024-03-08T21:06:25;5.63;;;1.67;;
80199;SDS011;69520;44.900;-0.764;2024-03-08T21:08:52;7.30;;;2.17;;
80199;SDS011;69520;44.900;-0.764;2024-03-08T21:11:21;6.93;;;2.08;;
80199;SDS011;69520;44.900;-0.764;2024-03-08T21:13:48;6.10;;;2.10;;
80199;SDS011;69520;44.900;-0.764;2024-03-08T21:16:14;6.70;;;2.30;;
80199;SDS011;69520;44.900;-0.764;2024-03-08T21:18:43;6.80;;;2.08;;
80199;SDS011;69520;44.900;-0.764;2024-03-08T21:21:09;7.83;;;2.47;;
80199;SDS011;69520;44.900;-0.764;2024-03-08T21:23:36;7.82;;;2.50;;
80199;SDS011;69520;44.900;-0.764;2024-03-08T21:26:02;6.88;;;2.22;;
80199;SDS011;69520;44.900;-0.764;2024-03-08T21:28:33;8.50;;;2.50;;
80199;SDS011;69520;44.900;-0.764;2024-03-08T21:30:59;6.80;;;1.90;;
80199;SDS011;69520;44.900;-0.764;2024-03-08T21:33:26;5.87;;;2.00;;
80199;SDS011;69520;44.900;-0.764;2024-03-08T21:35:52;7.72;;;2.00;;
80199;SDS011;69520;44.900;-0.764;2024-03-08T21:38:18;6.88;;;1.90;;
80199;SDS011;69520;44.900;-0.764;2024-03-08T21:40:45;7.35;;;2.22;;
80199;SDS011;69520;44.900;-0.764;2024-03-08T21:43:13;8.00;;;2.33;;
80199;SDS011;69520;44.900;-0.764;2024-03-08T21:45:40;7.90;;;2.30;;
80199;SDS011;69520;44.900;-0.764;2024-03-08T21:48:06;7.75;;;2.20;;
80199;SDS011;69520;44.900;-0.764;2024-03-08T21:50:35;8.00;;;2.58;;
80199;SDS011;69520;44.900;-0.764;2024-03-08T21:53:03;7.20;;;2.03;;
80199;SDS011;69520;44.900;-0.764;2024-03-08T21:55:36;7.40;;;2.00;;
80199;SDS011;69520;44.900;-0.764;2024-03-08T21:58:02;8.13;;;2.40;;
80199;SDS011;69520;44.900;-0.764;2024-03-08T22:00:29;8.48;;;2.67;;
80199;SDS011;69520;44.900;-0.764;2024-03-08T22:02:57;8.35;;;2.47;;
80199;SDS011;69520;44.900;-0.764;2024-03-08T22:05:28;9.02;;;2.70;;
80199;SDS011;69520;44.900;-0.764;2024-03-08T22:07:55;7.40;;;2.70;;
80199;SDS011;69520;44.900;-0.764;2024-03-08T22:10:21;7.57;;;2.10;;
80199;SDS011;69520;44.900;-0.764;2024-03-08T22:12:47;6.75;;;1.88;;
80199;SDS011;69520;44.900;-0.764;2024-03-08T22:15:14;8.25;;;2.38;;
80199;SDS011;69520;44.900;-0.764;2024-03-08T22:17:43;7.70;;;2.78;;
80199;SDS011;69520;44.900;-0.764;2024-03-08T22:20:12;7.65;;;2.65;;
80199;SDS011;69520;44.900;-0.764;2024-03-08T22:22:52;8.03;;;2.67;;
80199;SDS011;69520;44.900;-0.764;2024-03-08T22:25:18;7.07;;;2.55;;
80199;SDS011;69520;44.900;-0.764;2024-03-08T22:27:46;7.32;;;2.50;;
80199;SDS011;69520;44.900;-0.764;2024-03-08T22:30:16;6.88;;;2.30;;
80199;SDS011;69520;44.900;-0.764;2024-03-08T22:32:44;7.20;;;2.10;;
80199;SDS011;69520;44.900;-0.764;2024-03-08T22:35:11;7.07;;;2.40;;
80199;SDS011;69520;44.900;-0.764;2024-03-08T22:37:37;8.45;;;2.60;;
80199;SDS011;69520;44.900;-0.764;2024-03-08T22:40:04;7.90;;;2.88;;
80199;SDS011;69520;44.900;-0.764;2024-03-08T22:42:36;8.02;;;2.72;;
80199;SDS011;69520;44.900;-0.764;2024-03-08T22:45:05;7.53;;;2.65;;
80199;SDS011;69520;44.900;-0.764;2024-03-08T22:47:35;7.63;;;2.60;;
80199;SDS011;69520;44.900;-0.764;2024-03-08T22:50:01;7.28;;;2.38;;
80199;SDS011;69520;44.900;-0.764;2024-03-08T22:52:29;8.10;;;2.90;;
80199;SDS011;69520;44.900;-0.764;2024-03-08T22:54:55;8.82;;;2.65;;
80199;SDS011;69520;44.900;-0.764;2024-03-08T22:57:23;9.02;;;3.20;;
80199;SDS011;69520;44.900;-0.764;2024-03-08T22:59:49;8.03;;;2.57;;
80199;SDS011;69520;44.900;-0.764;2024-03-08T23:02:16;8.30;;;2.55;;
80199;SDS011;69520;44.900;-0.764;2024-03-08T23:04:44;7.50;;;2.58;;
80199;SDS011;69520;44.900;-0.764;2024-03-08T23:07:10;8.52;;;2.30;;
80199;SDS011;69520;44.900;-0.764;2024-03-08T23:09:36;6.72;;;2.10;;
80199;SDS011;69520;44.900;-0.764;2024-03-08T23:12:03;6.80;;;1.90;;
80199;SDS011;69520;44.900;-0.764;2024-03-08T23:14:33;5.45;;;1.63;;
80199;SDS011;69520;44.900;-0.764;2024-03-08T23:16:59;6.45;;;1.80;;
80199;SDS011;69520;44.900;-0.764;2024-03-08T23:19:25;6.38;;;1.98;;
80199;SDS011;69520;44.900;-0.764;2024-03-08T23:21:58;6.18;;;1.30;;
80199;SDS011;69520;44.900;-0.764;2024-03-08T23:24:25;5.27;;;1.27;;
80199;SDS011;69520;44.900;-0.764;2024-03-08T23:26:56;5.40;;;1.30;;
80199;SDS011;69520;44.900;-0.764;2024-03-08T23:29:22;6.57;;;1.63;;
